Time;durP1;ratioP1;P1;durP2;ratioP2;P2;SDS_P1;SDS_P2;PMS_P1;PMS_P2;Temp;Humidity;BMP_temperature;BMP_pressure;BME280_temperature;BME280_humidity;BME280_pressure;Samples;Min_cycle;Max_cycle;Signal;HPM_P1;HPM_P2
2021/04/03 00:00:32;;;;;;;5.97;4.00;;;;;;;14.09;57.48;98548.59;4935294;29;20019;-81
2021/04/03 00:02:58;;;;;;;6.40;4.32;;;;;;;14.08;57.49;98545.09;4935406;29;20082;-85
2021/04/03 00:05:25;;;;;;;6.80;4.22;;;;;;;14.07;57.51;98538.16;4935626;29;20027;-86
2021/04/03 00:07:52;;;;;;;4.78;3.85;;;;;;;14.08;57.53;98537.03;4935578;29;20400;-85
2021/04/03 00:10:22;;;;;;;6.25;4.47;;;;;;;14.11;57.66;98537.53;4935661;29;20019;-85
2021/04/03 00:12:48;;;;;;;5.45;3.97;;;;;;;14.07;57.59;98526.59;4951497;29;20031;-83
2021/04/03 00:15:14;;;;;;;4.75;4.00;;;;;;;14.10;57.72;98536.75;4933993;29;20539;-81
2021/04/03 00:17:40;;;;;;;9.80;6.20;;;;;;;14.08;57.72;98534.34;4935521;29;20379;-80
2021/04/03 00:20:14;;;;;;;6.40;4.45;;;;;;;14.09;57.50;98527.09;4934942;29;20031;-80
2021/04/03 00:22:40;;;;;;;4.75;3.90;;;;;;;14.09;57.53;98527.88;4935415;29;20086;-82
2021/04/03 00:25:06;;;;;;;4.60;3.33;;;;;;;14.11;57.50;98524.06;4934909;29;20053;-83
2021/04/03 00:27:32;;;;;;;4.38;3.63;;;;;;;14.09;57.46;98527.88;4935396;29;20436;-84
2021/04/03 00:29:57;;;;;;;4.70;4.30;;;;;;;14.09;57.56;98513.63;4934795;29;20035;-81
2021/04/03 00:32:23;;;;;;;5.45;3.53;;;;;;;14.10;57.83;98515.22;4935431;29;20031;-83
2021/04/03 00:34:48;;;;;;;5.40;4.13;;;;;;;14.11;57.61;98516.81;4935260;29;20507;-81
2021/04/03 00:37:14;;;;;;;5.95;4.10;;;;;;;14.11;57.43;98506.06;4935164;29;20048;-82
2021/04/03 00:39:39;;;;;;;5.53;3.70;;;;;;;14.13;57.54;98511.13;4935135;29;20378;-81
2021/04/03 00:42:16;;;;;;;5.72;4.80;;;;;;;14.15;57.61;98509.69;4935105;29;20031;-81
2021/04/03 00:44:49;;;;;;;6.78;4.28;;;;;;;14.15;57.39;98517.78;4934800;29;20027;-80
2021/04/03 00:47:15;;;;;;;5.65;3.97;;;;;;;14.16;57.35;98522.03;4931715;29;20111;-80
2021/04/03 00:49:44;;;;;;;5.88;4.07;;;;;;;14.16;57.38;98519.34;4916253;29;20052;-80
2021/04/03 00:52:12;;;;;;;5.18;3.58;;;;;;;14.17;57.15;98520.94;4923878;29;20034;-81
2021/04/03 00:54:39;;;;;;;5.60;3.30;;;;;;;14.17;56.82;98520.13;4934881;29;20020;-80
2021/04/03 00:57:05;;;;;;;5.05;3.67;;;;;;;14.16;57.11;98524.75;4935418;29;20068;-80
2021/04/03 00:59:31;;;;;;;6.47;3.90;;;;;;;14.16;57.01;98518.53;4938567;29;20478;-80
2021/04/03 01:01:57;;;;;;;4.60;3.42;;;;;;;14.17;57.28;98514.75;4937927;29;20027;-82
2021/04/03 01:04:22;;;;;;;3.83;3.45;;;;;;;14.19;57.17;98517.94;4938457;29;20024;-85
2021/04/03 01:06:48;;;;;;;3.67;3.38;;;;;;;14.17;56.67;98506.69;4938064;29;20027;-82
2021/04/03 01:09:13;;;;;;;5.47;3.47;;;;;;;14.21;56.61;98510.34;4938157;29;20023;-83
2021/04/03 01:11:44;;;;;;;4.38;3.50;;;;;;;14.22;56.53;98511.91;4937924;29;20065;-82
2021/04/03 01:14:16;;;;;;;6.28;3.92;;;;;;;14.24;56.30;98507.03;4937812;29;20023;-82
2021/04/03 01:16:41;;;;;;;8.00;3.90;;;;;;;14.23;56.65;98508.13;4937751;29;20054;-83
2021/04/03 01:19:10;;;;;;;4.38;3.97;;;;;;;14.28;56.63;98518.75;4937566;29;20066;-81
2021/04/03 01:22:03;;;;;;;6.68;3.75;;;;;;;14.30;56.57;98513.84;4937812;29;20042;-80
2021/04/03 01:25:06;;;;;;;5.78;4.15;;;;;;;14.30;56.79;98513.06;4938227;29;20054;-78
2021/04/03 01:27:32;;;;;;;9.65;4.68;;;;;;;14.28;56.52;98509.88;4938107;29;20049;-85
2021/04/03 01:30:10;;;;;;;6.60;4.15;;;;;;;14.29;56.71;98514.16;4937333;29;20019;-83
2021/04/03 01:32:35;;;;;;;;;;;;;;;14.29;56.51;98511.47;4938460;29;20034;-82
2021/04/03 01:35:04;;;;;;;5.38;4.53;;;;;;;14.26;56.52;98507.50;4937292;29;19911;-80
2021/04/03 01:37:31;;;;;;;9.63;5.70;;;;;;;14.24;56.38;98504.34;4937527;29;20023;-81
2021/04/03 01:40:00;;;;;;;11.63;4.30;;;;;;;14.23;56.61;98503.56;4937732;29;20050;-80
2021/04/03 01:42:32;;;;;;;9.52;4.65;;;;;;;14.24;56.48;98504.34;4937734;28;20488;-79
2021/04/03 01:45:00;;;;;;;5.38;4.88;;;;;;;14.27;56.18;98500.22;4936093;28;20030;-80
2021/04/03 01:47:29;;;;;;;10.77;4.22;;;;;;;14.29;56.38;98503.41;4940228;29;20059;-80
2021/04/03 01:49:56;;;;;;;4.95;4.10;;;;;;;14.31;56.31;98498.50;4937384;29;20257;-81
2021/04/03 01:52:25;;;;;;;5.60;4.00;;;;;;;14.34;55.94;98490.59;4937449;29;20055;-83
2021/04/03 01:54:56;;;;;;;5.85;3.90;;;;;;;14.35;56.23;98484.09;4937639;29;20050;-83
2021/04/03 01:57:24;;;;;;;6.82;4.95;;;;;;;14.39;55.79;98487.75;4937320;29;20034;-84
2021/04/03 01:59:51;;;;;;;6.68;4.55;;;;;;;14.42;55.96;98483.66;4937467;29;20412;-83
2021/04/03 02:02:18;;;;;;;6.72;6.05;;;;;;;14.44;56.05;98481.44;4936940;29;20054;-80
2021/04/03 02:04:45;;;;;;;5.90;4.30;;;;;;;14.48;55.74;98487.75;4937407;29;20054;-82
2021/04/03 02:07:15;;;;;;;8.65;7.05;;;;;;;14.47;56.13;98490.78;4936684;29;20078;-84
2021/04/03 02:09:41;;;;;;;8.63;5.82;;;;;;;14.45;55.79;98496.44;4937250;29;20095;-83
2021/04/03 02:12:08;;;;;;;8.10;6.07;;;;;;;14.44;56.27;98496.78;4937072;29;20444;-82
2021/04/03 02:14:37;;;;;;;8.60;6.30;;;;;;;14.38;56.54;98504.22;4936392;29;20023;-82
2021/04/03 02:17:05;;;;;;;9.32;5.50;;;;;;;14.26;57.39;98504.81;4936658;29;20038;-80
2021/04/03 02:19:31;;;;;;;7.65;5.85;;;;;;;14.09;57.79;98503.66;4936409;29;20024;-81
2021/04/03 02:21:56;;;;;;;6.15;5.40;;;;;;;13.98;57.99;98494.31;4953734;29;20066;-80
2021/04/03 02:24:22;;;;;;;7.65;5.82;;;;;;;13.89;58.47;98499.66;4936446;29;20055;-82
2021/04/03 02:26:48;;;;;;;10.02;5.90;;;;;;;13.80;58.78;98506.91;4937006;29;20030;-81
2021/04/03 02:29:14;;;;;;;10.00;5.38;;;;;;;13.73;59.14;98507.34;4936749;29;20030;-78
2021/04/03 02:31:39;;;;;;;10.07;5.90;;;;;;;13.69;58.93;98508.28;4936917;29;20031;-80
2021/04/03 02:34:05;;;;;;;7.53;5.47;;;;;;;13.64;59.46;98511.09;4935812;29;20570;-78
2021/04/03 02:36:30;;;;;;;7.40;5.75;;;;;;;13.53;59.89;98516.72;4936724;29;20114;-79
2021/04/03 02:38:56;;;;;;;7.55;6.07;;;;;;;13.43;60.51;98515.09;4936803;29;20119;-82
2021/04/03 02:41:30;;;;;;;14.85;7.55;;;;;;;13.35;60.71;98512.34;4935899;29;20066;-77
2021/04/03 02:44:19;;;;;;;11.52;7.07;;;;;;;13.29;60.54;98515.16;4953267;29;20043;-76
2021/04/03 02:46:55;;;;;;;12.18;7.80;;;;;;;13.23;60.77;98507.53;4936396;29;20078;-78
2021/04/03 02:49:55;;;;;;;9.55;5.85;;;;;;;13.17;60.84;98511.44;4936021;29;20031;-77
2021/04/03 02:52:23;;;;;;;7.57;6.00;;;;;;;13.12;61.23;98504.28;4921906;29;20039;-87
2021/04/03 02:54:49;;;;;;;7.43;6.13;;;;;;;13.10;61.17;98501.16;4935849;29;20388;-84
2021/04/03 02:57:16;;;;;;;9.10;6.72;;;;;;;13.04;61.49;98497.00;4935916;29;20029;-85
2021/04/03 02:59:51;;;;;;;7.57;6.65;;;;;;;12.98;61.70;98510.50;4936187;29;20066;-89
2021/04/03 03:02:20;;;;;;;13.00;6.55;;;;;;;13.00;62.12;98509.44;4935430;29;20027;-90
2021/04/03 03:04:47;;;;;;;13.20;6.93;;;;;;;12.95;62.33;98508.47;4936079;29;20055;-87
2021/04/03 03:07:13;;;;;;;8.27;6.40;;;;;;;12.93;62.09;98507.97;4935603;29;20101;-83
2021/04/03 03:09:41;;;;;;;9.40;6.30;;;;;;;12.88;62.52;98507.31;4935683;29;20471;-78
2021/04/03 03:12:09;;;;;;;8.38;6.72;;;;;;;12.82;62.66;98507.41;4953269;29;20035;-77
2021/04/03 03:14:36;;;;;;;11.30;7.10;;;;;;;12.78;62.94;98497.56;4935037;29;20515;-79
2021/04/03 03:17:02;;;;;;;11.38;7.80;;;;;;;12.76;62.72;98494.41;4936190;29;20468;-81
2021/04/03 03:19:28;;;;;;;8.55;6.15;;;;;;;12.75;62.66;98492.84;4934780;28;20059;-82
2021/04/03 03:21:54;;;;;;;8.38;6.45;;;;;;;12.71;63.25;98489.97;4935447;29;20035;-79
2021/04/03 03:24:20;;;;;;;9.95;7.70;;;;;;;12.68;63.16;98487.09;4952837;29;20027;-80
2021/04/03 03:26:46;;;;;;;9.55;6.55;;;;;;;12.63;62.83;98488.00;4935154;29;20037;-78
2021/04/03 03:29:12;;;;;;;9.45;7.50;;;;;;;12.64;63.01;98492.25;4935736;29;20114;-78
2021/04/03 03:31:39;;;;;;;10.98;7.47;;;;;;;12.64;63.15;98489.59;4935696;29;20395;-80
2021/04/03 03:34:05;;;;;;;9.82;7.00;;;;;;;12.64;63.38;98494.94;4935080;29;20028;-82
2021/04/03 03:36:34;;;;;;;10.32;8.02;;;;;;;12.63;63.64;98490.69;4935337;29;20035;-85
2021/04/03 03:38:59;;;;;;;11.45;7.57;;;;;;;12.59;63.42;98484.34;4935227;29;20023;-84
2021/04/03 03:41:26;;;;;;;12.85;8.02;;;;;;;12.58;63.49;98483.53;4935123;29;20039;-84
2021/04/03 03:43:52;;;;;;;10.48;8.40;;;;;;;12.60;63.65;98486.72;4935590;29;20070;-84
2021/04/03 03:46:17;;;;;;;9.80;7.57;;;;;;;12.58;63.46;98482.75;4931212;29;20542;-83
2021/04/03 03:48:43;;;;;;;10.75;7.55;;;;;;;12.58;63.73;98480.84;4935713;29;20034;-84
2021/04/03 03:51:08;;;;;;;11.07;7.53;;;;;;;12.57;64.08;98481.97;4935027;29;20059;-84
2021/04/03 03:53:34;;;;;;;9.18;7.40;;;;;;;12.57;64.19;98490.00;4935322;29;20063;-83
2021/04/03 03:56:00;;;;;;;11.18;7.68;;;;;;;12.57;64.12;98487.34;4935718;29;20090;-79
2021/04/03 03:58:25;;;;;;;11.77;7.63;;;;;;;12.56;63.45;98488.44;4935170;29;21002;-79
2021/04/03 04:00:51;;;;;;;11.30;6.85;;;;;;;12.59;63.68;98492.38;4935133;29;20031;-81
2021/04/03 04:03:16;;;;;;;10.10;7.72;;;;;;;12.61;64.04;98501.72;4935213;29;20038;-81
2021/04/03 04:05:42;;;;;;;11.73;7.97;;;;;;;12.62;63.56;98502.50;4935057;29;20054;-83
2021/04/03 04:08:08;;;;;;;9.40;8.23;;;;;;;12.63;63.62;98501.41;4934608;29;20031;-80
2021/04/03 04:10:34;;;;;;;15.20;8.40;;;;;;;12.65;64.03;98502.69;4935182;29;20113;-81
2021/04/03 04:13:01;;;;;;;11.50;8.02;;;;;;;12.69;63.46;98507.47;4934999;29;20030;-81
2021/04/03 04:15:27;;;;;;;11.80;7.22;;;;;;;12.74;63.63;98501.97;4934864;29;20039;-79
2021/04/03 04:17:52;;;;;;;11.15;8.07;;;;;;;12.74;63.18;98502.78;4935125;29;20019;-79
2021/04/03 04:20:18;;;;;;;16.83;10.73;;;;;;;12.79;63.42;98504.53;4935020;29;20043;-82
2021/04/03 04:22:43;;;;;;;9.80;8.40;;;;;;;12.81;63.16;98505.03;4934996;29;20045;-83
2021/04/03 04:25:09;;;;;;;12.35;8.52;;;;;;;12.81;63.14;98495.06;4934903;29;20144;-83
2021/04/03 04:27:35;;;;;;;15.20;9.35;;;;;;;12.87;63.04;98500.34;4934470;29;20032;-84
2021/04/03 04:30:08;;;;;;;12.88;8.95;;;;;;;12.89;63.11;98501.63;4934714;29;20031;-84
2021/04/03 04:32:41;;;;;;;11.80;9.48;;;;;;;12.90;62.68;98503.22;4933513;29;20495;-85
2021/04/03 04:35:09;;;;;;;14.60;9.27;;;;;;;12.91;62.54;98502.09;4938103;29;20027;-84
2021/04/03 04:37:35;;;;;;;14.07;9.50;;;;;;;12.93;62.54;98497.22;4938541;29;20026;-80
2021/04/03 04:40:02;;;;;;;16.08;10.05;;;;;;;12.94;62.29;98501.50;4937727;29;20053;-79
2021/04/03 04:42:27;;;;;;;15.60;10.43;;;;;;;12.96;62.36;98496.63;4938104;29;20494;-82
2021/04/03 04:44:53;;;;;;;17.30;11.75;;;;;;;13.00;62.59;98496.00;4937774;29;20027;-82
2021/04/03 04:47:19;;;;;;;22.45;12.00;;;;;;;13.01;62.14;98497.59;4938442;29;20043;-81
2021/04/03 04:49:44;;;;;;;18.38;11.60;;;;;;;13.02;62.15;98504.56;4937361;29;20030;-83
2021/04/03 04:52:10;;;;;;;22.70;12.73;;;;;;;13.04;62.04;98503.16;4938151;29;20110;-86
2021/04/03 04:54:35;;;;;;;21.70;12.50;;;;;;;13.07;62.03;98507.09;4938905;29;20027;-84
2021/04/03 04:57:01;;;;;;;24.08;13.50;;;;;;;13.08;62.14;98509.47;4938560;29;20501;-85
2021/04/03 04:59:26;;;;;;;20.13;12.45;;;;;;;13.14;62.01;98510.16;4937850;29;20376;-87
2021/04/03 05:01:52;;;;;;;18.33;11.48;;;;;;;13.17;62.02;98506.06;4937532;29;20395;-86
2021/04/03 05:04:17;;;;;;;15.13;10.18;;;;;;;13.21;61.25;98507.84;4937358;29;20491;-82
2021/04/03 05:06:43;;;;;;;19.27;10.85;;;;;;;13.24;61.44;98512.59;4938416;29;20023;-83
2021/04/03 05:09:08;;;;;;;13.25;10.32;;;;;;;13.28;61.21;98512.75;4937792;29;20026;-82
2021/04/03 05:11:35;;;;;;;14.63;10.32;;;;;;;13.32;61.40;98507.56;4937030;29;20031;-83
2021/04/03 05:14:02;;;;;;;15.60;10.77;;;;;;;13.34;61.28;98503.50;4934402;29;20023;-84
2021/04/03 05:16:27;;;;;;;14.70;10.10;;;;;;;13.40;60.86;98504.19;4937477;29;20019;-84
2021/04/03 05:18:52;;;;;;;14.73;10.38;;;;;;;13.46;60.65;98508.31;4933498;29;20034;-82
2021/04/03 05:21:18;;;;;;;15.07;10.25;;;;;;;13.49;60.59;98506.91;4929752;29;20023;-83
2021/04/03 05:23:43;;;;;;;16.23;9.68;;;;;;;13.63;60.52;98512.22;4933496;29;20046;-84
2021/04/03 05:26:09;;;;;;;12.38;8.85;;;;;;;13.79;60.29;98515.28;4927307;29;20462;-83
2021/04/03 05:28:34;;;;;;;11.93;8.93;;;;;;;13.97;59.94;98519.59;4929815;29;20082;-81
2021/04/03 05:30:59;;;;;;;11.63;9.20;;;;;;;14.12;59.27;98509.53;4918024;29;20027;-82
2021/04/03 05:33:25;;;;;;;13.15;8.95;;;;;;;14.27;58.86;98513.69;4925234;29;20031;-78
2021/04/03 05:35:50;;;;;;;12.07;8.75;;;;;;;14.39;58.37;98516.53;4933985;29;20098;-82
2021/04/03 05:38:16;;;;;;;13.55;9.20;;;;;;;14.52;57.96;98512.91;4923013;29;20023;-84
2021/04/03 05:40:41;;;;;;;13.68;9.60;;;;;;;14.75;58.04;98515.50;4929888;29;20403;-81
2021/04/03 05:43:08;;;;;;;12.52;8.30;;;;;;;14.98;57.25;98518.03;4934709;29;20496;-82
2021/04/03 05:45:37;;;;;;;10.95;8.90;;;;;;;15.18;56.81;98516.59;4928162;29;20053;-79
2021/04/03 05:48:03;;;;;;;12.93;9.10;;;;;;;15.39;56.39;98524.78;4936624;29;20122;-78
2021/04/03 05:50:29;;;;;;;13.70;9.40;;;;;;;15.53;55.21;98513.81;4937283;29;20491;-80
2021/04/03 05:52:55;;;;;;;10.23;8.65;;;;;;;15.59;54.57;98517.91;4953772;29;20114;-79
2021/04/03 05:55:20;;;;;;;12.20;8.07;;;;;;;15.65;54.78;98527.41;4936372;29;20030;-83
2021/04/03 05:57:46;;;;;;;9.40;7.50;;;;;;;15.72;54.50;98520.72;4936978;29;20037;-86
2021/04/03 06:00:12;;;;;;;9.05;7.32;;;;;;;15.74;54.13;98521.97;4936969;29;20058;-83
2021/04/03 06:02:38;;;;;;;9.57;7.55;;;;;;;15.74;53.73;98516.59;4936454;29;20027;-83
2021/04/03 06:05:07;;;;;;;11.25;7.15;;;;;;;15.79;53.98;98521.03;4936681;29;20027;-81
2021/04/03 06:07:34;;;;;;;11.18;8.65;;;;;;;15.82;53.71;98518.50;4936765;29;20023;-85
2021/04/03 06:10:03;;;;;;;12.05;8.20;;;;;;;15.88;53.90;98511.03;4937169;29;20069;-84
2021/04/03 06:12:37;;;;;;;15.52;9.50;;;;;;;15.99;53.96;98512.25;4936612;29;20119;-81
2021/04/03 06:15:03;;;;;;;11.20;8.73;;;;;;;16.15;53.75;98522.47;4936550;29;20027;-85
2021/04/03 06:17:29;;;;;;;16.10;10.23;;;;;;;16.24;53.53;98515.13;4936338;29;20544;-81
2021/04/03 06:19:54;;;;;;;14.85;9.45;;;;;;;16.33;53.25;98513.16;4934347;29;20031;-83
2021/04/03 06:22:19;;;;;;;15.55;9.65;;;;;;;16.49;53.46;98524.16;4928093;29;20023;-86
2021/04/03 06:24:45;;;;;;;17.63;12.20;;;;;;;16.63;52.31;98523.13;4932358;29;20027;-83
2021/04/03 06:27:15;;;;;;;14.30;9.00;;;;;;;16.79;52.12;98509.81;4935578;29;20112;-82
2021/04/03 06:29:47;;;;;;;12.70;10.60;;;;;;;16.99;51.90;98515.56;4925271;29;20114;-85
2021/04/03 06:32:26;;;;;;;9.90;6.45;;;;;;;17.08;50.69;98513.56;4952289;29;20198;-82
2021/04/03 06:34:54;;;;;;;9.02;6.63;;;;;;;17.27;50.42;98516.56;4932387;29;20030;-79
2021/04/03 06:37:35;;;;;;;9.30;6.70;;;;;;;17.43;49.62;98519.41;4946661;29;20038;-81
2021/04/03 06:40:09;;;;;;;7.28;6.28;;;;;;;17.58;49.36;98519.91;4933639;29;20480;-84
2021/04/03 06:42:55;;;;;;;8.27;5.93;;;;;;;17.74;49.09;98522.75;4935646;29;20026;-88
2021/04/03 06:45:21;;;;;;;9.45;6.53;;;;;;;17.87;48.70;98521.63;4935919;29;20034;-85
2021/04/03 06:47:47;;;;;;;8.52;7.15;;;;;;;17.98;48.09;98519.28;4936033;29;20043;-82
2021/04/03 06:50:20;;;;;;;7.57;6.78;;;;;;;18.08;47.99;98518.84;4935630;29;20031;-84
2021/04/03 06:52:46;;;;;;;10.13;6.88;;;;;;;18.15;48.19;98518.28;4936024;29;20035;-81
2021/04/03 06:55:13;;;;;;;8.38;7.57;;;;;;;18.20;48.08;98509.94;4934976;29;20049;-83
2021/04/03 06:57:43;;;;;;;7.45;6.28;;;;;;;18.20;47.74;98512.63;4934929;29;20038;-80
2021/04/03 07:00:11;;;;;;;8.82;6.90;;;;;;;18.25;47.89;98522.44;4934910;29;20066;-80
2021/04/03 07:03:01;;;;;;;7.63;6.13;;;;;;;18.30;47.70;98516.00;4935540;29;20035;-82
2021/04/03 07:05:34;;;;;;;8.07;6.32;;;;;;;18.39;47.98;98509.34;4932940;29;20035;-83
2021/04/03 07:08:03;;;;;;;8.38;5.35;;;;;;;18.44;47.28;98512.94;4923155;29;20031;-86
2021/04/03 07:10:29;;;;;;;6.82;6.10;;;;;;;18.51;46.86;98513.16;4935685;29;20027;-89
2021/04/03 07:12:56;;;;;;;8.65;6.57;;;;;;;18.63;46.56;98509.63;4936038;29;20030;-89
2021/04/03 07:15:22;;;;;;;11.85;6.35;;;;;;;18.76;46.43;98513.06;4936096;29;20391;-85
2021/04/03 07:17:50;;;;;;;5.55;5.05;;;;;;;18.84;45.24;98512.94;4935786;29;20035;-89
2021/04/03 07:20:18;;;;;;;5.83;5.17;;;;;;;18.92;44.58;98505.03;4936327;29;20126;-87
2021/04/03 07:22:47;;;;;;;6.72;5.43;;;;;;;18.95;44.47;98499.72;4933649;29;20432;-92
2021/04/03 07:25:13;;;;;;;7.93;5.13;;;;;;;18.98;44.60;98506.34;4927826;29;20027;-90
2021/04/03 07:27:45;;;;;;;7.45;5.32;;;;;;;19.08;44.68;98507.78;4935013;29;20051;-86
2021/04/03 07:30:12;;;;;;;7.95;5.13;;;;;;;19.15;44.48;98516.09;4943765;29;20035;-86
2021/04/03 07:32:44;;;;;;;8.57;5.85;;;;;;;19.20;43.82;98507.75;4923105;29;20030;-82
2021/04/03 07:35:27;;;;;;;7.72;5.53;;;;;;;19.32;43.93;98509.59;4935085;29;20042;-83
2021/04/03 07:37:53;;;;;;;7.40;5.57;;;;;;;19.40;43.60;98510.59;4930403;29;20105;-85
2021/04/03 07:40:25;;;;;;;7.22;5.72;;;;;;;19.45;43.89;98507.59;4929088;29;20533;-88
2021/04/03 07:42:51;;;;;;;7.20;5.45;;;;;;;19.49;43.88;98509.28;4933888;29;20031;-87
2021/04/03 07:45:28;;;;;;;7.03;6.05;;;;;;;19.64;43.64;98515.03;4928960;29;20114;-85
2021/04/03 07:47:54;;;;;;;7.70;6.22;;;;;;;19.70;43.56;98516.38;4916197;29;20134;-88
2021/04/03 07:50:47;;;;;;;6.60;5.50;;;;;;;19.73;42.86;98523.03;4915293;29;20118;-84
2021/04/03 07:53:12;;;;;;;8.32;5.93;;;;;;;19.74;42.98;98513.72;4908460;29;20063;-83
2021/04/03 07:55:43;;;;;;;8.02;6.20;;;;;;;19.77;43.43;98513.81;4915894;29;20036;-81
2021/04/03 07:58:26;;;;;;;8.60;5.53;;;;;;;19.78;43.59;98512.69;4900109;29;20071;-80
2021/04/03 08:00:52;;;;;;;10.15;6.50;;;;;;;19.79;43.64;98508.84;4916284;29;20032;-79
2021/04/03 08:03:28;;;;;;;9.55;6.07;;;;;;;19.75;43.88;98507.97;4915674;29;20047;-87
2021/04/03 08:06:11;;;;;;;9.30;6.30;;;;;;;19.75;43.74;98505.25;4916351;29;20035;-83
2021/04/03 08:08:41;;;;;;;6.47;5.70;;;;;;;19.72;43.73;98507.88;4920492;29;20042;-80
2021/04/03 08:11:10;;;;;;;9.57;6.38;;;;;;;19.67;43.59;98501.56;4906930;29;20063;-80
2021/04/03 08:13:43;;;;;;;7.55;6.05;;;;;;;19.60;44.16;98498.66;4919455;29;20127;-78
2021/04/03 08:16:11;;;;;;;6.78;5.70;;;;;;;19.50;44.28;98491.84;4923456;29;20047;-79
2021/04/03 08:18:42;;;;;;;8.32;6.47;;;;;;;19.45;44.80;98502.19;4919715;29;20039;-77
2021/04/03 08:21:09;;;;;;;9.25;6.15;;;;;;;19.38;44.91;98500.06;4938869;29;20023;-81
2021/04/03 08:23:42;;;;;;;9.73;6.05;;;;;;;19.30;44.96;98509.16;4921021;29;20092;-79
2021/04/03 08:26:09;;;;;;;8.43;6.50;;;;;;;19.25;45.41;98509.41;4936560;29;20124;-77
2021/04/03 08:28:35;;;;;;;8.80;6.75;;;;;;;19.22;45.68;98512.81;4919406;29;20036;-85
2021/04/03 08:31:24;;;;;;;8.13;6.38;;;;;;;19.17;46.03;98509.22;4916569;29;20605;-90
2021/04/03 08:33:52;;;;;;;9.50;6.47;;;;;;;19.22;46.17;98512.81;4917835;29;20032;-76
2021/04/03 08:36:20;;;;;;;6.40;5.75;;;;;;;19.23;45.68;98509.75;4936335;29;20024;-76
2021/04/03 08:38:47;;;;;;;9.15;6.25;;;;;;;19.27;45.46;98512.56;4936351;29;20040;-76
2021/04/03 08:41:17;;;;;;;8.60;5.68;;;;;;;19.23;45.77;98517.09;4918906;29;20016;-79
2021/04/03 08:43:43;;;;;;;10.95;6.72;;;;;;;19.22;45.84;98500.03;4934661;29;20027;-79
2021/04/03 08:46:12;;;;;;;8.27;6.22;;;;;;;19.22;46.22;98505.47;4920957;29;20027;-79
2021/04/03 08:48:39;;;;;;;7.05;6.03;;;;;;;19.25;46.39;98502.06;4938613;29;20545;-79
2021/04/03 08:51:07;;;;;;;9.30;7.20;;;;;;;19.30;46.22;98493.69;4938807;29;20031;-79
2021/04/03 08:53:46;;;;;;;9.23;6.13;;;;;;;19.42;46.44;98500.97;4955682;29;20109;-79
2021/04/03 08:56:18;;;;;;;7.30;5.72;;;;;;;19.50;46.25;98488.34;4955635;29;20101;-79
2021/04/03 08:58:44;;;;;;;8.50;5.75;;;;;;;19.55;46.32;98482.66;4955623;29;20388;-78
2021/04/03 09:01:10;;;;;;;8.50;6.32;;;;;;;19.60;46.08;98482.41;4938465;29;20031;-78
2021/04/03 09:03:37;;;;;;;10.73;7.00;;;;;;;19.65;46.39;98479.44;4938244;29;20038;-78
2021/04/03 09:06:05;;;;;;;7.00;5.45;;;;;;;19.76;45.63;98478.91;4938431;29;20031;-78
2021/04/03 09:08:31;;;;;;;12.95;6.97;;;;;;;19.81;45.43;98468.59;4938203;29;20027;-78
2021/04/03 09:11:06;;;;;;;10.90;6.13;;;;;;;19.89;45.42;98474.97;4938337;29;20031;-78
2021/04/03 09:13:39;;;;;;;11.25;7.18;;;;;;;19.96;45.53;98460.81;4937993;29;20027;-78
2021/04/03 09:16:06;;;;;;;9.85;7.20;;;;;;;20.07;45.24;98467.25;4938104;29;20027;-78
2021/04/03 09:18:32;;;;;;;7.43;6.72;;;;;;;20.14;45.23;98469.31;4937133;29;20110;-78
2021/04/03 09:20:57;;;;;;;7.95;6.32;;;;;;;20.09;44.88;98462.25;4938230;29;20460;-79
2021/04/03 09:23:23;;;;;;;7.78;7.00;;;;;;;20.09;45.23;98453.31;4937627;29;20016;-77
2021/04/03 09:26:03;;;;;;;7.10;6.07;;;;;;;20.14;45.26;98458.47;4937996;29;20027;-78
2021/04/03 09:28:38;;;;;;;7.20;6.15;;;;;;;20.12;45.15;98461.53;4937838;29;20027;-79
2021/04/03 09:31:04;;;;;;;6.65;5.88;;;;;;;20.16;45.25;98453.47;4937936;29;20480;-79
2021/04/03 09:33:30;;;;;;;6.32;5.72;;;;;;;20.17;45.34;98443.44;4937620;29;20106;-79
2021/04/03 09:36:12;;;;;;;8.10;6.63;;;;;;;20.21;45.36;98449.72;4937883;29;20035;-79
2021/04/03 09:38:38;;;;;;;9.45;6.40;;;;;;;20.18;45.18;98443.06;4937361;29;20167;-79
2021/04/03 09:41:19;;;;;;;8.82;6.68;;;;;;;20.19;45.61;98451.97;4955135;29;20118;-79
2021/04/03 09:43:45;;;;;;;9.07;6.47;;;;;;;20.25;45.40;98450.56;4954987;29;20038;-79
2021/04/03 09:46:11;;;;;;;8.50;6.93;;;;;;;20.26;45.69;98449.41;4954401;29;20113;-79
2021/04/03 09:48:36;;;;;;;13.80;6.25;;;;;;;20.32;45.23;98445.28;4937031;29;20078;-79
2021/04/03 09:51:06;;;;;;;11.18;6.47;;;;;;;20.34;44.78;98444.94;4937921;29;20030;-80
2021/04/03 09:53:31;;;;;;;7.07;6.25;;;;;;;20.31;45.03;98438.28;4954572;29;20027;-80
2021/04/03 09:55:57;;;;;;;6.93;5.95;;;;;;;20.29;45.15;98429.72;4937532;29;20035;-79
2021/04/03 09:58:22;;;;;;;6.75;6.10;;;;;;;20.29;45.21;98427.78;4937602;29;20023;-79
2021/04/03 10:00:48;;;;;;;9.43;7.13;;;;;;;20.33;44.88;98429.78;4937213;29;20023;-79
2021/04/03 10:03:13;;;;;;;9.73;6.47;;;;;;;20.35;44.26;98416.63;4937229;29;20063;-79
2021/04/03 10:05:39;;;;;;;6.82;6.13;;;;;;;20.40;44.13;98429.94;4937116;29;20046;-78
2021/04/03 10:08:04;;;;;;;9.73;5.82;;;;;;;20.42;43.86;98420.28;4937272;29;20067;-78
2021/04/03 10:10:30;;;;;;;11.25;6.53;;;;;;;20.45;43.65;98402.50;4954466;29;20113;-79
2021/04/03 10:12:55;;;;;;;12.13;5.95;;;;;;;20.44;43.72;98407.13;4937145;29;20023;-79
2021/04/03 10:15:21;;;;;;;8.75;6.05;;;;;;;20.50;43.59;98404.16;4937044;29;20033;-79
2021/04/03 10:17:47;;;;;;;8.85;6.68;;;;;;;20.50;43.52;98406.84;4937173;29;20027;-79
2021/04/03 10:20:13;;;;;;;8.57;6.97;;;;;;;20.48;43.75;98397.13;4937496;29;20019;-80
2021/04/03 10:22:39;;;;;;;6.85;6.15;;;;;;;20.48;44.13;98388.19;4936971;29;20373;-79
2021/04/03 10:25:05;;;;;;;7.28;6.57;;;;;;;20.44;44.17;98406.34;4936989;29;20039;-80
2021/04/03 10:27:30;;;;;;;9.25;7.32;;;;;;;20.44;44.70;98395.50;4953939;29;20031;-79
2021/04/03 10:29:55;;;;;;;11.23;6.35;;;;;;;20.44;44.48;98384.63;4936901;29;20122;-80
2021/04/03 10:32:21;;;;;;;9.05;7.45;;;;;;;20.42;44.69;98389.63;4936821;29;20050;-79
2021/04/03 10:34:46;;;;;;;11.57;7.60;;;;;;;20.40;44.85;98381.84;4935963;29;20015;-79
2021/04/03 10:37:12;;;;;;;12.98;7.97;;;;;;;20.36;43.91;98364.69;4953927;29;20031;-79
2021/04/03 10:39:37;;;;;;;12.10;7.28;;;;;;;20.29;44.32;98378.13;4936376;29;20030;-79
2021/04/03 10:42:03;;;;;;;11.73;7.55;;;;;;;20.26;44.73;98376.13;4936681;29;20031;-80
2021/04/03 10:44:28;;;;;;;9.95;6.53;;;;;;;20.23;45.00;98366.75;4936224;29;20033;-80
2021/04/03 10:46:54;;;;;;;7.38;5.15;;;;;;;20.27;45.01;98373.03;4936364;29;20078;-80
2021/04/03 10:49:21;;;;;;;11.15;6.13;;;;;;;20.31;45.12;98359.53;4936618;29;20078;-80
2021/04/03 10:51:46;;;;;;;9.80;5.80;;;;;;;20.34;44.79;98366.97;4936328;29;20476;-80
2021/04/03 10:54:12;;;;;;;9.55;7.25;;;;;;;20.38;44.38;98373.25;4936278;29;20081;-79
2021/04/03 10:56:37;;;;;;;10.75;7.90;;;;;;;20.40;44.47;98364.78;4953465;29;20031;-79
2021/04/03 10:59:03;;;;;;;11.20;6.72;;;;;;;20.43;43.81;98359.41;4936599;29;20031;-80
2021/04/03 11:01:28;;;;;;;11.48;7.18;;;;;;;20.44;43.97;98355.53;4953516;29;20154;-79
2021/04/03 11:03:54;;;;;;;8.60;6.22;;;;;;;20.46;43.41;98355.19;4936214;29;20023;-79
2021/04/03 11:06:19;;;;;;;8.80;6.25;;;;;;;20.46;43.81;98342.38;4936252;29;20093;-79
2021/04/03 11:08:44;;;;;;;12.25;6.93;;;;;;;20.51;43.65;98340.50;4936049;29;20093;-79
2021/04/03 11:11:10;;;;;;;9.25;5.88;;;;;;;20.55;43.47;98333.22;4936207;29;20027;-79
2021/04/03 11:13:35;;;;;;;5.78;5.25;;;;;;;20.57;42.71;98336.38;4935802;29;20528;-80
2021/04/03 11:16:01;;;;;;;7.72;5.60;;;;;;;20.60;42.99;98338.34;4953267;29;20035;-80
2021/04/03 11:18:26;;;;;;;10.90;6.32;;;;;;;20.62;42.89;98346.94;4935799;29;20122;-79
2021/04/03 11:20:52;;;;;;;6.43;5.65;;;;;;;20.67;42.54;98351.31;4935563;29;20491;-79
2021/04/03 11:23:17;;;;;;;9.20;6.32;;;;;;;20.67;42.77;98335.78;4936003;29;20023;-79
2021/04/03 11:25:44;;;;;;;8.15;6.50;;;;;;;20.72;42.70;98346.38;4935775;29;20031;-79
2021/04/03 11:28:10;;;;;;;7.73;6.10;;;;;;;20.75;43.01;98342.94;4935930;29;20019;-79
2021/04/03 11:30:35;;;;;;;10.10;6.45;;;;;;;20.83;43.41;98326.75;4935563;29;20417;-79
2021/04/03 11:33:01;;;;;;;10.68;6.00;;;;;;;20.89;43.30;98328.03;4935839;29;20115;-80